Time;durP1;ratioP1;P1;durP2;ratioP2;P2;SDS_P1;SDS_P2;PMS_P1;PMS_P2;Temp;Humidity;BMP_temperature;BMP_pressure;BME280_temperature;BME280_humidity;BME280_pressure;Samples;Min_cycle;Max_cycle;Signal;HPM_P1;HPM_P2
2023/02/02 00:02:01;;;;;;;14.50;2.50;;;;;;;4.62;84.08;100682.05;108645;1259;73501;-75
2023/02/02 00:04:33;;;;;;;10.00;2.20;;;;;;;4.58;84.25;100685.22;108810;1257;61183;-75
2023/02/02 00:07:00;;;;;;;9.70;2.00;;;;;;;4.56;84.32;100688.34;108822;1257;59328;-74
2023/02/02 00:09:29;;;;;;;13.10;2.60;;;;;;;4.54;84.22;100693.85;108757;1257;73184;-75
2023/02/02 00:11:57;;;;;;;9.90;2.00;;;;;;;4.54;84.04;100693.79;108659;1260;70748;-75
2023/02/02 00:14:24;;;;;;;12.70;2.60;;;;;;;4.56;84.00;100695.55;108776;1257;72920;-75
2023/02/02 00:16:53;;;;;;;14.30;2.50;;;;;;;4.57;83.98;100691.92;108775;1259;60927;-75
2023/02/02 00:19:29;;;;;;;13.60;1.80;;;;;;;4.58;84.17;100688.01;108628;1257;61089;-76
2023/02/02 00:21:56;;;;;;;12.20;2.90;;;;;;;4.58;83.77;100704.89;108772;1257;73400;-75
2023/02/02 00:24:23;;;;;;;13.00;2.90;;;;;;;4.59;83.53;100690.52;108614;1258;69804;-75
2023/02/02 00:26:52;;;;;;;11.50;2.10;;;;;;;4.63;83.51;100710.90;108762;1259;71510;-75
2023/02/02 00:29:25;;;;;;;11.40;2.70;;;;;;;4.65;83.43;100707.33;108612;1259;60111;-75
2023/02/02 00:31:52;;;;;;;13.90;2.20;;;;;;;4.66;83.52;100695.77;108755;1257;59464;-76
2023/02/02 00:34:20;;;;;;;10.10;2.10;;;;;;;4.66;83.41;100698.01;108638;1257;74660;-76
2023/02/02 00:36:48;;;;;;;13.70;2.30;;;;;;;4.67;83.36;100694.58;108816;1257;70283;-75
2023/02/02 00:39:17;;;;;;;11.20;2.10;;;;;;;4.68;83.09;100692.00;108809;1257;73041;-75
2023/02/02 00:41:45;;;;;;;16.40;2.50;;;;;;;4.68;82.83;100710.97;108678;1259;59918;-75
2023/02/02 00:46:57;;;;;;;15.20;2.30;;;;;;;4.67;82.66;100711.27;108689;1257;75654;-75
2023/02/02 00:49:24;;;;;;;15.30;2.70;;;;;;;4.64;82.79;100704.31;108626;1257;70618;-74
2023/02/02 00:51:51;;;;;;;13.60;2.30;;;;;;;4.62;82.86;100706.64;108630;1259;70529;-75
2023/02/02 00:54:17;;;;;;;13.70;2.40;;;;;;;4.58;82.90;100707.45;108849;1257;59953;-75
2023/02/02 00:56:44;;;;;;;12.70;3.10;;;;;;;4.55;82.91;100712.11;108838;1258;60075;-75
2023/02/02 00:59:11;;;;;;;13.70;2.60;;;;;;;4.57;83.01;100711.59;108780;1259;73770;-75
2023/02/02 01:01:38;;;;;;;14.60;2.40;;;;;;;4.59;83.22;100718.09;108709;1260;70271;-75
2023/02/02 01:04:05;;;;;;;13.10;2.60;;;;;;;4.54;83.27;100720.60;108729;1257;71635;-75
2023/02/02 01:06:32;;;;;;;14.30;3.00;;;;;;;4.52;83.28;100725.84;108799;1259;60883;-75
2023/02/02 01:08:58;;;;;;;16.80;2.80;;;;;;;4.52;83.52;100725.32;108792;1257;59195;-75
2023/02/02 01:11:26;;;;;;;15.40;2.80;;;;;;;4.52;83.43;100730.59;108800;1258;74027;-75
2023/02/02 01:13:52;;;;;;;9.80;2.00;;;;;;;4.53;83.22;100745.77;108660;1258;70495;-75
2023/02/02 01:16:21;;;;;;;11.00;2.00;;;;;;;4.55;82.97;100739.43;108692;1259;70607;-75
2023/02/02 01:18:49;;;;;;;10.50;2.10;;;;;;;4.55;83.18;100730.13;108770;1259;61055;-75
2023/02/02 01:21:16;;;;;;;16.90;2.80;;;;;;;4.52;82.82;100731.66;108811;1258;59000;-74
2023/02/02 01:23:43;;;;;;;10.70;2.20;;;;;;;4.52;82.98;100721.48;108700;1259;74864;-74
2023/02/02 01:26:11;;;;;;;15.80;2.20;;;;;;;4.49;82.72;100736.80;108712;1257;68860;-75
2023/02/02 01:28:38;;;;;;;17.10;2.60;;;;;;;4.49;82.77;100726.07;108779;1259;70738;-75
2023/02/02 01:31:08;;;;;;;13.80;2.50;;;;;;;4.49;82.62;100739.60;108605;1257;61173;-75
2023/02/02 01:33:35;;;;;;;13.10;2.60;;;;;;;4.50;82.49;100734.45;108686;1259;60201;-74
2023/02/02 01:36:09;;;;;;;13.40;2.80;;;;;;;4.47;82.36;100742.91;108831;1259;74480;-74
2023/02/02 01:38:36;;;;;;;15.70;2.60;;;;;;;4.47;82.33;100736.60;108788;1258;71289;-74
2023/02/02 01:41:03;;;;;;;12.20;2.60;;;;;;;4.44;82.13;100744.73;108803;1257;71605;-74
2023/02/02 01:43:51;;;;;;;12.60;2.50;;;;;;;4.41;82.27;100750.92;108675;1258;61371;-74
2023/02/02 01:46:23;;;;;;;16.70;2.90;;;;;;;4.40;82.26;100759.48;108610;1259;59188;-74
2023/02/02 01:49:02;;;;;;;13.20;2.40;;;;;;;4.43;82.30;100747.07;108473;1259;74379;-74
2023/02/02 01:51:45;;;;;;;14.00;2.50;;;;;;;4.43;81.99;100769.67;108846;1257;71310;-74
2023/02/02 01:54:16;;;;;;;13.80;2.60;;;;;;;4.49;82.20;100766.56;108802;1257;71396;-74
2023/02/02 01:56:50;;;;;;;13.10;2.70;;;;;;;4.51;82.15;100779.75;108666;1258;60022;-74
2023/02/02 01:59:17;;;;;;;15.90;3.60;;;;;;;4.55;81.97;100774.84;108659;1259;59267;-74
2023/02/02 02:01:46;;;;;;;16.80;3.90;;;;;;;4.58;81.69;100785.93;108721;1259;74709;-74
2023/02/02 02:04:14;;;;;;;13.80;2.50;;;;;;;4.57;81.49;100776.52;108611;1259;70947;-75
2023/02/02 02:06:41;;;;;;;13.20;2.50;;;;;;;4.61;81.52;100782.36;108668;1257;72856;-74
2023/02/02 02:09:08;;;;;;;15.80;2.50;;;;;;;4.61;81.60;100787.40;108595;1259;61286;-74
2023/02/02 02:11:36;;;;;;;14.70;2.60;;;;;;;4.65;81.46;100797.61;108694;1258;60079;-73
2023/02/02 02:17:11;;;;;;;15.70;2.90;;;;;;;4.69;81.36;100787.38;108801;1258;70354;-73
2023/02/02 02:26:33;;;;;;;15.00;2.60;;;;;;;4.68;81.39;100800.27;108757;1257;59120;-73
2023/02/02 02:29:00;;;;;;;12.20;2.90;;;;;;;4.72;81.35;100800.64;108800;1258;74783;-73
2023/02/02 02:32:04;;;;;;;15.00;3.10;;;;;;;4.72;81.53;100799.92;108756;1257;71277;-74
2023/02/02 02:35:08;;;;;;;10.30;2.50;;;;;;;4.74;81.40;100807.70;108529;1259;72391;-74
2023/02/02 02:38:08;;;;;;;13.10;2.80;;;;;;;4.73;81.27;100810.02;108698;1257;62092;-74
2023/02/02 02:40:41;;;;;;;14.20;2.50;;;;;;;4.75;81.17;100815.11;108719;1259;59186;-73
2023/02/02 02:43:42;;;;;;;13.30;2.50;;;;;;;4.76;81.38;100812.57;108690;1259;73697;-74
2023/02/02 02:46:11;;;;;;;14.60;2.60;;;;;;;4.75;80.97;100823.70;108718;1257;71458;-74
2023/02/02 02:48:38;;;;;;;12.00;2.30;;;;;;;4.72;81.04;100827.47;108777;1258;71449;-74
2023/02/02 02:51:42;;;;;;;11.30;2.10;;;;;;;4.67;81.04;100820.19;108796;1259;59940;-74
2023/02/02 02:54:12;;;;;;;17.70;3.80;;;;;;;4.67;81.26;100822.09;108788;1257;58920;-74
2023/02/02 02:56:57;;;;;;;14.80;2.40;;;;;;;4.63;81.40;100830.84;108799;1259;74411;-74
2023/02/02 02:59:32;;;;;;;15.70;2.70;;;;;;;4.59;81.47;100846.12;108804;1258;72245;-74
2023/02/02 03:02:28;;;;;;;15.70;3.20;;;;;;;4.56;81.75;100833.02;108820;1258;72620;-74
2023/02/02 03:05:22;;;;;;;11.00;2.20;;;;;;;4.45;82.06;100847.14;108680;1257;61566;-74
2023/02/02 03:07:58;;;;;;;10.50;1.90;;;;;;;4.42;82.20;100851.02;108685;1258;59226;-74
2023/02/02 03:10:28;;;;;;;12.50;2.40;;;;;;;4.38;82.34;100841.44;108835;1259;73900;-73
2023/02/02 03:12:56;;;;;;;10.80;2.50;;;;;;;4.36;82.67;100842.25;108753;1259;69446;-74
2023/02/02 03:15:23;;;;;;;15.20;2.40;;;;;;;4.31;82.99;100847.62;108675;1259;71236;-73
2023/02/02 03:17:52;;;;;;;9.10;2.50;;;;;;;4.30;83.28;100839.65;108737;1257;59517;-74
2023/02/02 03:20:20;;;;;;;16.40;3.00;;;;;;;4.25;83.39;100848.10;108849;1257;61216;-73
2023/02/02 03:22:46;;;;;;;14.60;2.30;;;;;;;4.24;83.78;100842.59;108693;1257;73457;-74
2023/02/02 03:25:14;;;;;;;11.50;2.40;;;;;;;4.20;83.99;100842.81;108820;1258;71010;-73
2023/02/02 03:27:41;;;;;;;14.80;2.80;;;;;;;4.18;84.35;100838.73;108693;1259;71206;-74
2023/02/02 03:30:11;;;;;;;12.90;2.50;;;;;;;4.16;84.51;100840.80;108667;1257;59703;-74
2023/02/02 03:32:39;;;;;;;15.90;2.30;;;;;;;4.15;84.89;100843.23;108775;1257;59112;-75
2023/02/02 03:35:07;;;;;;;12.10;2.50;;;;;;;4.15;84.99;100842.84;108785;1257;72903;-74
2023/02/02 03:37:34;;;;;;;16.50;2.90;;;;;;;4.14;85.08;100851.84;108658;1257;69981;-74
2023/02/02 03:40:00;;;;;;;15.80;2.40;;;;;;;4.14;85.38;100844.23;108783;1257;72118;-74
2023/02/02 03:42:27;;;;;;;10.10;2.60;;;;;;;4.14;85.51;100867.13;108635;1257;59802;-75
2023/02/02 03:44:54;;;;;;;13.50;2.60;;;;;;;4.16;85.57;100852.36;108527;1259;332940;-75
2023/02/02 03:47:20;;;;;;;16.00;3.20;;;;;;;4.15;85.67;100855.63;108661;1259;74387;-76
2023/02/02 03:49:47;;;;;;;12.40;2.20;;;;;;;4.15;85.89;100854.61;108721;1259;58912;-75
2023/02/02 03:52:14;;;;;;;11.30;2.30;;;;;;;4.13;85.69;100859.98;108709;1258;71450;-75
2023/02/02 03:54:40;;;;;;;14.80;2.50;;;;;;;4.15;85.70;100868.54;108760;1257;60172;-75
2023/02/02 03:57:07;;;;;;;13.70;2.20;;;;;;;4.16;85.67;100871.48;108800;1259;59733;-75
2023/02/02 03:59:34;;;;;;;13.00;2.00;;;;;;;4.15;85.93;100861.80;108699;1259;73244;-75
2023/02/02 04:02:01;;;;;;;18.40;2.50;;;;;;;4.16;85.94;100875.84;108748;1259;69774;-75
2023/02/02 04:04:28;;;;;;;15.00;2.70;;;;;;;4.18;86.16;100875.17;108792;1257;72700;-76
2023/02/02 04:06:55;;;;;;;13.40;2.60;;;;;;;4.18;86.19;100869.74;108675;1257;60094;-75
2023/02/02 04:09:21;;;;;;;15.80;3.00;;;;;;;4.17;86.32;100897.77;108592;1258;59430;-75
2023/02/02 04:11:48;;;;;;;15.70;3.10;;;;;;;4.20;86.62;100886.00;108561;1259;74377;-75
2023/02/02 04:14:15;;;;;;;15.60;3.10;;;;;;;4.23;86.63;100899.27;108763;1259;69552;-75
2023/02/02 04:16:42;;;;;;;13.10;3.50;;;;;;;4.23;86.82;100895.17;108643;1259;71770;-75
2023/02/02 04:19:11;;;;;;;12.20;2.30;;;;;;;4.21;87.07;100892.60;108777;1257;60899;-76
2023/02/02 04:21:39;;;;;;;18.50;2.70;;;;;;;4.22;87.16;100905.81;108766;1257;61067;-75
2023/02/02 04:24:09;;;;;;;12.10;2.00;;;;;;;4.18;87.55;100897.00;108663;1257;72681;-75
2023/02/02 04:26:35;;;;;;;14.10;2.30;;;;;;;4.17;87.65;100904.83;108757;1257;70416;-75
2023/02/02 04:29:02;;;;;;;16.40;2.90;;;;;;;4.15;88.08;100914.77;108771;1259;71875;-76
2023/02/02 04:31:30;;;;;;;17.00;2.80;;;;;;;4.14;88.33;100917.64;108645;1260;60931;-75
2023/02/02 04:33:57;;;;;;;14.10;2.90;;;;;;;4.11;88.72;100913.59;108631;1260;59189;-75
2023/02/02 04:36:24;;;;;;;13.60;2.40;;;;;;;4.08;89.08;100920.06;108549;1259;73137;-75
2023/02/02 04:38:52;;;;;;;15.10;2.80;;;;;;;4.07;89.51;100915.96;108750;1257;70043;-75
2023/02/02 04:41:20;;;;;;;12.00;2.20;;;;;;;4.05;89.81;100919.44;108564;1258;71489;-74
2023/02/02 04:43:47;;;;;;;13.40;2.40;;;;;;;4.05;90.11;100939.73;108624;1257;61781;-74
2023/02/02 04:46:14;;;;;;;13.30;2.30;;;;;;;4.05;90.04;100917.83;108759;1259;61478;-75
2023/02/02 04:48:41;;;;;;;17.10;2.60;;;;;;;4.01;90.30;100917.30;108633;1259;73426;-75
2023/02/02 04:51:11;;;;;;;16.40;3.10;;;;;;;3.98;90.76;100928.08;108593;1258;71267;-74
2023/02/02 04:53:39;;;;;;;20.20;3.10;;;;;;;3.97;90.81;100917.15;108713;1259;72434;-74
2023/02/02 04:56:08;;;;;;;14.30;2.60;;;;;;;3.92;90.98;100927.70;108660;1257;61068;-75
2023/02/02 04:58:35;;;;;;;10.70;2.50;;;;;;;3.87;91.34;100917.77;108738;1259;60573;-75
2023/02/02 05:01:10;;;;;;;12.80;3.20;;;;;;;3.82;91.58;100921.90;108718;1259;73511;-76
2023/02/02 05:03:37;;;;;;;22.60;3.50;;;;;;;3.80;91.89;100930.59;108803;1258;70048;-75
2023/02/02 05:06:05;;;;;;;19.20;3.50;;;;;;;3.80;92.02;100929.38;108699;1258;72781;-75
2023/02/02 05:08:33;;;;;;;14.50;2.50;;;;;;;3.79;91.96;100928.17;108574;1257;61287;-81
2023/02/02 05:10:59;;;;;;;21.30;3.60;;;;;;;3.77;92.27;100930.84;108637;1259;58967;-75
2023/02/02 05:13:26;;;;;;;15.30;2.30;;;;;;;3.76;92.40;100939.67;108732;1259;73440;-75
2023/02/02 05:15:54;;;;;;;14.90;2.90;;;;;;;3.76;92.62;100941.63;108644;1257;72170;-75
2023/02/02 05:18:21;;;;;;;18.50;3.30;;;;;;;3.75;92.75;100939.27;108746;1257;71833;-75
2023/02/02 05:20:48;;;;;;;15.40;2.70;;;;;;;3.76;92.56;100933.06;108670;1258;63128;-75
2023/02/02 05:23:15;;;;;;;16.30;3.60;;;;;;;3.75;92.70;100935.90;108749;1257;59967;-75
2023/02/02 05:25:41;;;;;;;14.30;2.70;;;;;;;3.74;92.62;100939.67;108679;1258;74765;-76
2023/02/02 05:28:08;;;;;;;13.80;3.20;;;;;;;3.72;92.99;100937.95;108671;1259;70046;-75
2023/02/02 05:30:38;;;;;;;13.90;2.60;;;;;;;3.69;93.22;100947.20;108716;1259;72371;-75
2023/02/02 05:33:04;;;;;;;18.80;3.00;;;;;;;3.73;92.87;100940.94;108644;1259;59842;-74
2023/02/02 05:35:31;;;;;;;14.30;3.50;;;;;;;3.74;92.93;100937.05;108680;1257;59379;-75
2023/02/02 05:39:45;;;;;;;13.90;2.70;;;;;;;3.82;92.60;100950.43;104641;1289;599816;-74
2023/02/02 05:42:12;;;;;;;12.00;2.50;;;;;;;3.78;92.76;100953.31;106724;1263;57906;-75
2023/02/02 05:44:39;;;;;;;15.20;2.40;;;;;;;3.78;92.85;100955.23;107171;1263;59359;-75
2023/02/02 05:47:06;;;;;;;17.50;3.20;;;;;;;3.77;92.81;100967.02;107157;1263;59177;-76
2023/02/02 05:49:32;;;;;;;18.30;2.70;;;;;;;3.80;92.64;100980.11;106858;1263;70941;-77
2023/02/02 05:51:59;;;;;;;19.60;3.30;;;;;;;3.81;92.80;100968.30;106910;1264;71511;-75
2023/02/02 05:54:26;;;;;;;14.30;2.90;;;;;;;3.81;92.60;100970.21;108520;1262;221455;-75
2023/02/02 05:56:54;;;;;;;22.70;3.70;;;;;;;3.82;92.56;100982.00;108418;1263;58969;-74
2023/02/02 05:59:22;;;;;;;20.70;3.70;;;;;;;3.87;92.05;100969.02;106614;1265;73325;-75
2023/02/02 06:01:48;;;;;;;13.90;2.80;;;;;;;3.91;92.20;100974.34;106340;1263;70170;-75
2023/02/02 06:04:15;;;;;;;16.50;3.20;;;;;;;3.92;92.22;100981.92;106359;1265;71522;-74
2023/02/02 06:06:42;;;;;;;15.00;3.10;;;;;;;3.92;92.49;100978.96;106655;1263;59633;-75
2023/02/02 06:09:10;;;;;;;16.40;3.50;;;;;;;3.92;92.52;100980.91;106479;1262;59736;-75
2023/02/02 06:11:38;;;;;;;12.90;2.30;;;;;;;3.91;92.54;100974.52;106636;1261;71869;-75
2023/02/02 06:14:05;;;;;;;20.90;3.70;;;;;;;3.87;92.88;100981.95;106431;1263;70130;-74
2023/02/02 06:16:32;;;;;;;17.30;2.80;;;;;;;3.88;93.05;100976.30;106653;1265;71155;-74
2023/02/02 06:18:58;;;;;;;16.90;2.90;;;;;;;3.89;92.86;100980.27;106371;1263;61536;-76
2023/02/02 06:21:29;;;;;;;19.20;3.80;;;;;;;3.89;93.20;100989.67;106342;1263;59690;-75
2023/02/02 06:23:57;;;;;;;18.10;3.00;;;;;;;3.91;92.91;100988.13;106435;1265;72122;-76
2023/02/02 06:26:25;;;;;;;18.80;3.00;;;;;;;3.94;92.84;100987.36;106248;1267;69764;-75
2023/02/02 06:28:53;;;;;;;20.30;3.20;;;;;;;3.94;92.81;100987.75;106464;1263;71541;-76
2023/02/02 06:31:20;;;;;;;18.40;3.20;;;;;;;3.95;93.09;100990.83;106405;1263;59980;-75
2023/02/02 06:33:52;;;;;;;18.90;3.40;;;;;;;3.97;93.01;100995.19;106187;1264;59587;-76
2023/02/02 06:36:20;;;;;;;20.00;3.50;;;;;;;4.01;93.08;100996.97;106547;1263;71629;-75
2023/02/02 06:38:49;;;;;;;14.00;2.50;;;;;;;4.02;93.25;101002.61;106391;1263;70312;-75
2023/02/02 06:41:16;;;;;;;20.00;3.50;;;;;;;4.06;92.97;101010.15;106596;1263;72523;-75
2023/02/02 06:43:43;;;;;;;14.70;3.60;;;;;;;4.10;92.82;101007.73;106714;1263;60853;-78
2023/02/02 06:46:10;;;;;;;18.80;3.00;;;;;;;4.16;92.80;101017.96;106385;1263;59571;-78
2023/02/02 06:48:38;;;;;;;14.60;2.70;;;;;;;4.18;92.68;101021.13;106715;1263;70874;-77
2023/02/02 06:51:05;;;;;;;15.80;3.20;;;;;;;4.20;92.55;101012.35;106303;1263;69654;-77
2023/02/02 06:53:32;;;;;;;18.40;3.00;;;;;;;4.21;92.42;101023.67;106712;1263;72540;-78
2023/02/02 06:56:06;;;;;;;16.90;3.60;;;;;;;4.22;92.50;101018.34;106293;1263;59646;-78
2023/02/02 06:58:33;;;;;;;17.40;3.60;;;;;;;4.23;92.44;101020.73;106535;1264;59752;-78
2023/02/02 07:01:08;;;;;;;17.90;2.90;;;;;;;4.25;92.31;101025.13;107524;1255;71629;-76
2023/02/02 07:03:35;;;;;;;16.60;2.90;;;;;;;4.23;92.48;101022.67;107474;1259;70016;-75
2023/02/02 07:06:23;;;;;;;15.40;3.10;;;;;;;4.25;92.43;101024.55;106619;1257;71511;-75
2023/02/02 07:08:50;;;;;;;16.90;2.90;;;;;;;4.24;92.52;101032.04;107191;1257;60089;-75
2023/02/02 07:11:30;;;;;;;15.60;3.20;;;;;;;4.24;92.76;101033.71;107182;1257;60280;-76
2023/02/02 07:13:58;;;;;;;13.20;2.70;;;;;;;4.28;92.76;101044.63;106872;1256;72186;-76
2023/02/02 07:16:25;;;;;;;14.30;2.70;;;;;;;4.30;92.79;101038.02;107049;1254;70089;-74
2023/02/02 07:18:52;;;;;;;16.60;2.90;;;;;;;4.30;92.96;101048.31;106891;1254;72388;-75
2023/02/02 07:21:23;;;;;;;14.20;2.90;;;;;;;4.32;92.87;101049.78;106747;1259;59773;-75
2023/02/02 07:23:50;;;;;;;19.20;3.60;;;;;;;4.31;93.16;101054.90;107040;1253;60033;-74
2023/02/02 07:26:18;;;;;;;15.10;3.10;;;;;;;4.31;93.31;101054.35;107273;1253;59640;-74
2023/02/02 07:28:46;;;;;;;17.50;3.40;;;;;;;4.32;93.53;101058.52;107538;1253;70000;-77
2023/02/02 07:31:24;;;;;;;12.40;2.70;;;;;;;4.34;93.56;101064.68;107239;1253;71519;-75
2023/02/02 07:33:52;;;;;;;14.00;2.30;;;;;;;4.33;93.61;101065.81;107256;1254;62086;-75
2023/02/02 07:36:22;;;;;;;16.70;3.00;;;;;;;4.34;93.85;101060.27;107492;1256;59559;-74
2023/02/02 07:38:53;;;;;;;16.20;2.90;;;;;;;4.37;93.50;101061.06;107454;1251;71522;-76
2023/02/02 07:41:20;;;;;;;18.60;3.60;;;;;;;4.35;93.69;101067.15;107010;1253;71201;-75
2023/02/02 07:43:48;;;;;;;19.70;3.40;;;;;;;4.34;93.91;101062.01;107672;1253;72691;-76
2023/02/02 07:46:16;;;;;;;15.90;2.70;;;;;;;4.35;93.83;101061.94;107086;1253;59968;-75
2023/02/02 07:48:43;;;;;;;15.10;2.90;;;;;;;4.37;94.06;101061.28;107706;1251;60356;-75
2023/02/02 07:51:13;;;;;;;17.20;3.10;;;;;;;4.39;94.10;101065.86;107090;1254;72606;-74
2023/02/02 07:53:43;;;;;;;17.20;3.10;;;;;;;4.41;94.24;101077.58;108954;1252;70464;-75
2023/02/02 07:56:14;;;;;;;16.20;2.90;;;;;;;4.45;94.31;101068.44;108422;1253;73522;-76
2023/02/02 07:58:42;;;;;;;19.30;4.10;;;;;;;4.50;94.24;101069.44;107783;1253;60535;-78
2023/02/02 08:01:11;;;;;;;15.60;3.20;;;;;;;4.56;94.22;101072.50;107618;1252;60508;-77
2023/02/02 08:03:39;;;;;;;18.00;3.40;;;;;;;4.58;94.25;101076.52;107377;1255;71921;-75
2023/02/02 08:06:14;;;;;;;13.80;2.60;;;;;;;4.62;94.27;101082.33;107897;1254;70999;-76
2023/02/02 08:08:41;;;;;;;15.20;3.00;;;;;;;4.60;94.35;101081.74;107023;1254;72688;-76
2023/02/02 08:11:10;;;;;;;13.20;2.90;;;;;;;4.59;94.64;101083.41;107111;1250;60887;-77
2023/02/02 08:13:37;;;;;;;15.10;3.30;;;;;;;4.62;94.64;101096.16;107324;1251;59939;-75
2023/02/02 08:16:05;;;;;;;18.60;3.50;;;;;;;4.63;94.82;101091.14;107176;1251;72861;-77
2023/02/02 08:18:33;;;;;;;14.90;3.30;;;;;;;4.68;94.85;101096.05;106648;1253;71202;-76
2023/02/02 08:21:02;;;;;;;16.00;3.40;;;;;;;4.69;94.84;101103.27;107281;1256;71641;-76
2023/02/02 08:23:30;;;;;;;12.20;2.90;;;;;;;4.71;94.85;101103.63;107235;1253;61430;-76
2023/02/02 08:26:09;;;;;;;19.10;3.50;;;;;;;4.73;94.77;101111.00;107243;1253;60111;-77
2023/02/02 08:28:36;;;;;;;20.90;3.30;;;;;;;4.74;94.95;101117.91;107158;1251;71627;-80
2023/02/02 08:31:13;;;;;;;14.50;3.00;;;;;;;4.78;94.98;101114.81;107115;1251;70009;-77
2023/02/02 08:33:40;;;;;;;15.70;2.90;;;;;;;4.80;94.93;101122.36;107142;1251;71238;-75
2023/02/02 08:36:15;;;;;;;16.50;3.00;;;;;;;4.84;94.99;101129.34;107035;1252;61296;-79
2023/02/02 08:38:42;;;;;;;17.70;3.10;;;;;;;4.87;94.84;101126.45;107832;1251;59718;-76
2023/02/02 08:41:12;;;;;;;18.60;4.10;;;;;;;4.93;94.89;101128.81;107152;1254;72790;-76
2023/02/02 08:43:39;;;;;;;13.90;3.50;;;;;;;4.93;94.77;101131.86;107018;1253;70023;-76
2023/02/02 08:46:10;;;;;;;21.20;3.90;;;;;;;4.93;94.82;101134.46;107117;1253;72946;-77
2023/02/02 08:48:37;;;;;;;14.80;3.40;;;;;;;4.95;94.79;101134.63;107269;1253;59741;-76
2023/02/02 08:51:05;;;;;;;14.00;3.40;;;;;;;4.99;94.59;101142.56;107173;1254;59541;-75
2023/02/02 08:53:32;;;;;;;16.20;3.10;;;;;;;5.01;94.49;101144.84;107168;1254;73530;-77
2023/02/02 08:56:05;;;;;;;15.80;3.50;;;;;;;5.06;94.26;101142.64;106937;1258;71161;-77
2023/02/02 08:58:33;;;;;;;18.00;3.40;;;;;;;5.10;94.23;101142.11;107582;1255;71171;-78
2023/02/02 09:01:10;;;;;;;13.30;2.80;;;;;;;5.11;94.05;101149.77;107274;1253;60994;-77
2023/02/02 09:03:39;;;;;;;18.60;3.30;;;;;;;5.13;93.90;101152.53;107137;1252;59723;-77
2023/02/02 09:06:07;;;;;;;13.20;2.70;;;;;;;5.16;93.75;101159.34;107045;1257;71949;-77
2023/02/02 09:08:35;;;;;;;14.80;2.50;;;;;;;5.18;93.56;101155.80;107341;1251;72417;-77
2023/02/02 09:11:08;;;;;;;12.00;3.00;;;;;;;5.18;93.20;101160.25;107294;1253;71504;-76
2023/02/02 09:13:37;;;;;;;13.00;3.20;;;;;;;5.21;93.16;101160.63;106860;1253;60913;-78
2023/02/02 09:16:06;;;;;;;14.90;3.20;;;;;;;5.27;92.92;101164.01;107391;1255;59570;-77
2023/02/02 09:18:33;;;;;;;16.30;3.10;;;;;;;5.31;92.35;101170.35;107304;1253;70885;-78
2023/02/02 09:21:02;;;;;;;13.10;2.80;;;;;;;5.38;92.13;101176.45;107089;1254;70126;-76
2023/02/02 09:23:31;;;;;;;16.90;3.20;;;;;;;5.42;91.84;101175.75;107155;1255;72083;-76
2023/02/02 09:26:11;;;;;;;14.60;3.20;;;;;;;5.45;91.26;101179.88;107056;1253;60787;-78
2023/02/02 09:28:40;;;;;;;10.40;2.10;;;;;;;5.52;90.80;101182.30;107242;1253;60365;-76
2023/02/02 09:31:07;;;;;;;12.70;2.80;;;;;;;5.58;90.43;101188.56;107095;1251;72040;-76
2023/02/02 09:33:34;;;;;;;9.20;2.10;;;;;;;5.58;89.88;101195.63;107400;1254;70406;-75
2023/02/02 09:36:27;;;;;;;10.00;2.40;;;;;;;5.62;89.59;101193.55;106664;1259;71465;-77
2023/02/02 09:38:54;;;;;;;8.50;2.60;;;;;;;5.66;89.18;101201.08;107209;1252;61136;-77
2023/02/02 09:41:36;;;;;;;13.70;2.80;;;;;;;5.68;88.75;101199.51;107033;1255;60009;-76
2023/02/02 09:44:31;;;;;;;10.40;2.30;;;;;;;5.68;88.10;101208.63;107185;1253;74356;-77
2023/02/02 09:46:58;;;;;;;15.20;2.40;;;;;;;5.76;87.45;101217.10;107267;1256;69944;-79
2023/02/02 09:49:41;;;;;;;11.40;2.30;;;;;;;5.88;87.69;101216.95;107398;1251;71384;-77
2023/02/02 09:52:14;;;;;;;11.70;2.30;;;;;;;6.02;87.14;101221.20;107389;1251;60375;-79
2023/02/02 09:54:47;;;;;;;10.80;1.80;;;;;;;6.10;86.17;101227.17;107086;1257;60461;-79
2023/02/02 09:57:36;;;;;;;9.30;2.50;;;;;;;6.19;85.44;101226.78;107310;1253;73198;-79
2023/02/02 10:00:05;;;;;;;12.20;2.20;;;;;;;6.27;85.15;101232.55;107157;1256;69917;-78
2023/02/02 10:02:38;;;;;;;13.20;2.80;;;;;;;6.32;84.68;101238.15;107122;1252;71442;-77
2023/02/02 10:05:18;;;;;;;11.10;1.90;;;;;;;6.30;83.81;101243.40;106995;1251;60741;-77
2023/02/02 10:07:50;;;;;;;10.30;2.00;;;;;;;6.29;83.68;101241.34;107032;1255;60594;-79
2023/02/02 10:10:25;;;;;;;9.30;2.00;;;;;;;6.28;83.23;101244.27;108121;1255;72802;-75
2023/02/02 10:12:58;;;;;;;15.50;2.50;;;;;;;6.36;83.42;101242.80;107351;1251;70837;-78
2023/02/02 10:15:58;;;;;;;6.70;1.60;;;;;;;6.44;82.11;101249.91;106987;1253;71958;-77
2023/02/02 10:18:36;;;;;;;9.70;2.30;;;;;;;6.46;82.14;101257.94;106982;1256;61714;-77
2023/02/02 10:21:11;;;;;;;10.90;2.00;;;;;;;6.47;82.24;101256.30;106966;1255;62073;-76
2023/02/02 10:23:43;;;;;;;13.50;1.90;;;;;;;6.46;82.32;101261.67;107335;1251;72967;-75
2023/02/02 10:26:21;;;;;;;10.10;2.40;;;;;;;6.42;82.21;101262.70;107138;1252;69624;-77
2023/02/02 10:29:09;;;;;;;8.50;1.70;;;;;;;6.41;82.56;101261.20;107402;1255;71741;-75
2023/02/02 10:32:13;;;;;;;9.40;1.80;;;;;;;6.39;82.18;101265.42;107270;1253;60916;-76
2023/02/02 10:34:53;;;;;;;10.50;2.00;;;;;;;6.41;81.99;101276.84;107273;1254;61008;-75
2023/02/02 10:37:52;;;;;;;12.70;2.70;;;;;;;6.37;81.53;101275.11;107647;1256;73084;-80
2023/02/02 10:40:55;;;;;;;10.80;2.30;;;;;;;6.32;81.24;101281.48;107720;1256;71650;-80
2023/02/02 10:43:50;;;;;;;8.10;1.80;;;;;;;6.38;81.11;101285.33;107693;1255;72172;-82
2023/02/02 10:46:35;;;;;;;8.30;1.50;;;;;;;6.56;80.93;101281.71;107821;1251;60453;-80
2023/02/02 10:49:39;;;;;;;11.30;2.10;;;;;;;6.63;80.88;101287.75;107755;1254;60536;-80
2023/02/02 10:52:16;;;;;;;9.10;1.80;;;;;;;6.67;80.68;101290.43;107077;1254;72751;-79
2023/02/02 10:54:56;;;;;;;12.00;2.10;;;;;;;6.66;80.40;101291.91;107395;1259;69315;-81
2023/02/02 10:57:50;;;;;;;11.40;2.30;;;;;;;6.65;80.28;101281.08;107412;1255;73955;-80
2023/02/02 11:00:36;;;;;;;11.70;2.30;;;;;;;6.68;80.25;101282.77;107135;1254;60515;-79
2023/02/02 11:03:05;;;;;;;9.90;1.80;;;;;;;6.69;79.86;101288.86;107258;1254;62082;-80
2023/02/02 11:08:38;;;;;;;7.50;1.60;;;;;;;6.78;79.94;101301.02;107106;1260;69974;-79
2023/02/02 11:11:16;;;;;;;10.90;2.00;;;;;;;6.80;79.98;101308.30;107318;1253;71164;-79
2023/02/02 11:13:58;;;;;;;11.60;2.30;;;;;;;6.79;79.73;101312.04;107012;1254;60772;-79
2023/02/02 11:16:30;;;;;;;8.70;1.80;;;;;;;6.86;79.79;101305.25;107232;1254;60886;-78
2023/02/02 11:19:20;;;;;;;7.80;2.00;;;;;;;6.92;79.46;101306.81;107196;1253;72004;-80
2023/02/02 11:21:55;;;;;;;9.60;2.00;;;;;;;7.02;78.86;101315.63;107341;1254;69955;-80
2023/02/02 11:24:23;;;;;;;10.40;1.80;;;;;;;7.05;78.28;101314.46;107810;1260;72710;-80
2023/02/02 11:27:01;;;;;;;10.60;2.00;;;;;;;7.09;77.89;101311.98;107209;1254;61042;-79
2023/02/02 11:29:50;;;;;;;13.60;2.20;;;;;;;7.08;77.94;101310.73;107348;1255;59151;-80
2023/02/02 11:32:24;;;;;;;14.00;2.60;;;;;;;7.12;78.06;101317.02;107211;1254;72667;-80
2023/02/02 11:35:28;;;;;;;10.40;2.00;;;;;;;7.14;77.16;101318.28;107248;1254;72194;-79
2023/02/02 11:38:16;;;;;;;8.40;2.20;;;;;;;7.26;76.65;101317.85;107084;1258;71141;-78
2023/02/02 11:40:44;;;;;;;11.90;2.40;;;;;;;7.46;76.20;101327.50;107718;1258;61240;-78
2023/02/02 11:43:19;;;;;;;11.30;1.90;;;;;;;7.48;75.29;101329.50;106908;1254;60532;-79
2023/02/02 11:45:53;;;;;;;13.00;2.50;;;;;;;7.64;74.90;101322.58;107356;1254;73910;-81
2023/02/02 11:48:28;;;;;;;14.40;3.00;;;;;;;7.85;74.70;101324.30;107402;1257;69708;-79
2023/02/02 11:50:57;;;;;;;11.30;2.10;;;;;;;8.01;74.22;101314.70;107427;1254;71939;-80
2023/02/02 11:53:34;;;;;;;9.50;2.00;;;;;;;8.36;73.49;101316.05;107120;1254;60433;-78
2023/02/02 11:56:08;;;;;;;12.20;2.70;;;;;;;8.76;71.95;101308.80;107133;1254;60579;-80